Sattler, Texas
Current Conditions -  °F | °C
As of 11:51 PM on Friday 19 Dec 2014 (Local Time) from KBAZ Reporting Station
Overcast Overcast  
Wind Chill: 10°   Ceiling: 1100
Heat Index: 10°   Visibility: 10mi
Dew Point:   Wind: 14mph
Humidity: 83%   Direction: 20°NNE
Pressure: 30.17"   Gusts: NA
Location:  29.8812°N, 98.2387°W
Report Text: KBAZ 200551Z AUTO 02012KT 10SM OVC011 10/07 A3017 RMK AO2 SLP214 T01000072 10133 20100 401780100 51004
Loading
Personal Weather Stations






























Interactive Weather Map New forecast layout! Learn more

10-Day Weather Forecast

Advertisements
Track Severe Weather on mobile